Time;durP1;ratioP1;P1;durP2;ratioP2;P2;SDS_P1;SDS_P2;PMS_P1;PMS_P2;Temp;Humidity;BMP_temperature;BMP_pressure;BME280_temperature;BME280_humidity;BME280_pressure;Samples;Min_cycle;Max_cycle;Signal;HPM_P1;HPM_P2
2023/12/11 00:00:01;;;;;;;16.70;11.50;;;;;;;0.83;80.78;99450.47;107181;1262;60816;-38
2023/12/11 00:02:30;;;;;;;16.20;10.60;;;;;;;0.82;80.89;99447.89;107176;1261;60206;-38
2023/12/11 00:04:58;;;;;;;17.20;10.30;;;;;;;0.79;80.89;99443.34;107192;1257;74231;-38
2023/12/11 00:07:26;;;;;;;15.70;11.20;;;;;;;0.79;80.64;99443.02;107201;1257;67575;-38
2023/12/11 00:09:54;;;;;;;16.60;11.30;;;;;;;0.84;80.69;99436.90;107205;1261;72419;-38
2023/12/11 00:12:22;;;;;;;15.90;11.00;;;;;;;0.85;80.77;99432.45;107212;1261;60331;-38
2023/12/11 00:14:49;;;;;;;16.90;10.90;;;;;;;0.87;80.96;99433.71;107213;1256;60658;-38
2023/12/11 00:17:17;;;;;;;16.50;11.40;;;;;;;0.88;81.01;99433.77;107205;1256;72583;-38
2023/12/11 00:19:44;;;;;;;18.10;11.20;;;;;;;0.87;80.88;99439.84;107221;1262;67590;-38
2023/12/11 00:22:12;;;;;;;15.30;10.50;;;;;;;0.85;81.07;99443.73;107197;1257;72717;-38
2023/12/11 00:24:39;;;;;;;13.80;9.90;;;;;;;0.90;80.72;99442.25;107201;1260;60962;-38
2023/12/11 00:27:07;;;;;;;14.00;10.40;;;;;;;0.96;80.37;99440.70;107210;1257;60299;-38
2023/12/11 00:29:36;;;;;;;14.10;9.80;;;;;;;0.92;80.60;99436.56;107193;1262;73884;-38
2023/12/11 00:32:04;;;;;;;16.40;11.00;;;;;;;0.88;81.06;99425.77;107178;1257;67172;-38
2023/12/11 00:34:32;;;;;;;14.10;10.80;;;;;;;0.91;81.15;99421.48;107231;1258;71388;-38
2023/12/11 00:37:00;;;;;;;13.20;9.80;;;;;;;0.90;80.99;99416.69;107162;1257;60851;-38
2023/12/11 00:39:28;;;;;;;14.10;9.60;;;;;;;0.96;80.92;99410.81;107162;1257;61059;-39
2023/12/11 00:41:56;;;;;;;12.50;8.90;;;;;;;1.07;80.79;99402.75;107175;1258;72644;-38
2023/12/11 00:44:24;;;;;;;12.70;9.40;;;;;;;1.08;80.35;99400.06;107171;1257;67589;-38
2023/12/11 00:46:51;;;;;;;13.60;9.90;;;;;;;1.03;80.48;99399.52;107147;1257;71391;-39
2023/12/11 00:49:19;;;;;;;12.70;9.20;;;;;;;1.00;80.47;99398.46;107197;1260;60446;-38
2023/12/11 00:51:52;;;;;;;13.50;9.40;;;;;;;0.96;80.39;99402.05;107186;1257;60442;-38
2023/12/11 00:54:20;;;;;;;13.50;9.60;;;;;;;0.91;80.32;99405.61;107147;1261;73865;-38
2023/12/11 00:56:48;;;;;;;12.10;9.20;;;;;;;0.94;80.37;99408.86;107165;1263;67763;-39
2023/12/11 00:59:15;;;;;;;14.10;9.50;;;;;;;1.00;79.94;99412.92;107162;1262;71440;-38
2023/12/11 01:01:43;;;;;;;14.30;9.70;;;;;;;1.02;80.42;99406.58;106393;1257;1002429;-38
2023/12/11 01:04:12;;;;;;;14.20;9.80;;;;;;;1.03;80.13;99391.02;107262;1257;60309;-38
2023/12/11 01:06:41;;;;;;;12.90;9.50;;;;;;;1.00;80.05;99385.80;107177;1258;73853;-38
2023/12/11 01:09:09;;;;;;;13.00;8.90;;;;;;;0.94;80.23;99379.66;107290;1261;66901;-38
2023/12/11 01:11:36;;;;;;;11.90;8.20;;;;;;;0.90;80.14;99379.36;107174;1263;71440;-38
2023/12/11 01:14:04;;;;;;;10.80;8.60;;;;;;;0.95;80.12;99382.20;107250;1256;60434;-38
2023/12/11 01:16:31;;;;;;;10.70;8.00;;;;;;;1.01;80.16;99386.25;107163;1257;60316;-38
2023/12/11 01:18:59;;;;;;;12.20;8.90;;;;;;;1.00;79.86;99387.25;107154;1260;73804;-38
2023/12/11 01:21:27;;;;;;;11.20;8.70;;;;;;;0.95;79.89;99386.37;107157;1261;67923;-38
2023/12/11 01:23:54;;;;;;;12.10;8.50;;;;;;;0.88;79.88;99392.52;107166;1260;72657;-38
2023/12/11 01:26:24;;;;;;;;;;;;;;;0.79;79.86;99392.31;107182;1260;60371;-38
2023/12/11 01:28:52;;;;;;;9.70;6.70;;;;;;;0.76;79.75;99392.48;107039;1257;267389;-38
2023/12/11 01:33:46;;;;;;;10.50;7.70;;;;;;;0.71;79.99;99392.89;104359;1289;600811;-38
2023/12/11 01:36:14;;;;;;;11.10;8.00;;;;;;;0.68;80.25;99396.73;106596;1267;59270;-39
2023/12/11 01:38:41;;;;;;;10.60;7.50;;;;;;;0.60;80.34;99389.42;106572;1267;59423;-38
2023/12/11 01:41:09;;;;;;;11.30;7.70;;;;;;;0.56;80.45;99397.14;106494;1266;71020;-38
2023/12/11 01:43:36;;;;;;;9.70;6.90;;;;;;;0.55;80.51;99390.86;106437;1267;67595;-38
2023/12/11 01:46:18;;;;;;;11.20;7.40;;;;;;;0.58;80.67;99387.95;106498;1272;72690;-38
2023/12/11 01:48:45;;;;;;;11.40;8.00;;;;;;;0.60;80.78;99385.02;106618;1267;59376;-38
2023/12/11 01:51:13;;;;;;;11.50;8.20;;;;;;;0.58;81.18;99380.23;106625;1267;60041;-38
2023/12/11 01:53:41;;;;;;;10.80;7.80;;;;;;;0.56;81.10;99373.79;106574;1266;72286;-39
2023/12/11 01:56:09;;;;;;;9.80;7.00;;;;;;;0.54;81.35;99373.27;105923;1265;1002622;-39
2023/12/11 01:58:36;;;;;;;10.90;7.30;;;;;;;0.56;81.36;99376.40;106511;1267;72779;-39
2023/12/11 02:01:04;;;;;;;10.20;7.00;;;;;;;0.60;81.24;99375.31;106662;1265;59734;-40
2023/12/11 02:03:32;;;;;;;11.10;7.50;;;;;;;0.58;81.44;99368.10;106679;1270;60419;-39
2023/12/11 02:06:00;;;;;;;10.90;7.70;;;;;;;0.54;81.50;99360.16;106685;1265;73074;-39
2023/12/11 02:08:29;;;;;;;12.40;7.80;;;;;;;0.51;81.96;99355.89;106682;1267;66635;-39
2023/12/11 02:10:56;;;;;;;10.10;7.00;;;;;;;0.48;81.93;99350.83;106659;1265;72712;-39
2023/12/11 02:13:24;;;;;;;8.10;6.50;;;;;;;0.47;81.42;99335.70;106636;1267;59577;-39
2023/12/11 02:15:51;;;;;;;9.70;7.00;;;;;;;0.48;81.35;99346.23;106657;1267;59795;-39
2023/12/11 02:18:21;;;;;;;10.50;7.10;;;;;;;0.47;81.55;99349.46;106672;1267;73048;-39
2023/12/11 02:20:49;;;;;;;10.20;7.30;;;;;;;0.41;81.95;99352.80;106685;1265;66694;-39
2023/12/11 02:23:45;;;;;;;9.20;7.30;;;;;;;0.36;82.02;99359.08;106667;1269;72700;-39
2023/12/11 02:26:14;;;;;;;10.90;7.30;;;;;;;0.27;82.33;99367.38;106641;1267;60931;-39
2023/12/11 02:28:41;;;;;;;11.80;6.90;;;;;;;0.26;82.40;99367.81;106840;1266;59534;-39
2023/12/11 02:31:09;;;;;;;9.70;6.30;;;;;;;0.24;82.53;99367.22;106699;1266;71797;-39
2023/12/11 02:33:37;;;;;;;9.40;6.90;;;;;;;0.19;82.77;99367.67;106704;1267;65968;-39
2023/12/11 02:36:05;;;;;;;10.60;7.30;;;;;;;0.11;83.18;99363.27;106798;1264;72741;-39
2023/12/11 02:38:33;;;;;;;9.70;7.10;;;;;;;0.07;83.48;99363.11;104631;1264;1003802;-39
2023/12/11 02:41:01;;;;;;;7.60;5.80;;;;;;;0.11;83.40;99365.40;106829;1263;59384;-39
2023/12/11 02:43:28;;;;;;;9.20;6.60;;;;;;;0.16;83.09;99374.75;106819;1263;72162;-39
2023/12/11 02:45:56;;;;;;;9.10;6.10;;;;;;;0.15;83.27;99372.63;106822;1261;67886;-39
2023/12/11 02:48:23;;;;;;;8.50;6.70;;;;;;;0.13;83.66;99375.34;106796;1264;72720;-39
2023/12/11 02:50:51;;;;;;;9.40;7.20;;;;;;;0.11;83.87;99372.59;106797;1266;59721;-39
2023/12/11 02:53:18;;;;;;;8.70;6.20;;;;;;;0.07;83.74;99371.59;106802;1262;59523;-39
2023/12/11 02:55:46;;;;;;;9.30;6.10;;;;;;;0.11;83.93;99372.23;106821;1264;73066;-39
2023/12/11 02:58:14;;;;;;;8.50;6.30;;;;;;;0.18;83.73;99373.56;106894;1264;66723;-39
2023/12/11 03:00:41;;;;;;;8.80;6.50;;;;;;;0.19;83.78;99376.48;106819;1266;72706;-39
2023/12/11 03:03:09;;;;;;;9.80;6.30;;;;;;;0.16;83.84;99373.42;106814;1264;59647;-39
2023/12/11 03:05:37;;;;;;;9.40;5.60;;;;;;;0.15;83.91;99375.04;106802;1262;60030;-39
2023/12/11 03:08:05;;;;;;;8.50;6.20;;;;;;;0.13;83.69;99376.67;106830;1266;72843;-39
2023/12/11 03:10:32;;;;;;;7.70;5.90;;;;;;;0.19;83.54;99375.08;106837;1263;65610;-39
2023/12/11 03:13:01;;;;;;;8.40;5.50;;;;;;;0.20;83.49;99368.81;106797;1263;73083;-39
2023/12/11 03:15:30;;;;;;;8.50;6.10;;;;;;;0.16;83.48;99366.38;106715;1263;59555;-39
2023/12/11 03:17:58;;;;;;;8.30;6.40;;;;;;;0.11;83.40;99363.16;106880;1263;59567;-39
2023/12/11 03:20:26;;;;;;;7.50;5.20;;;;;;;0.07;83.52;99355.65;106906;1264;72198;-39
2023/12/11 03:22:54;;;;;;;5.90;4.80;;;;;;;0.08;83.29;99346.23;106800;1263;66321;-39
2023/12/11 03:25:22;;;;;;;7.00;5.40;;;;;;;0.11;83.25;99341.51;106813;1264;72708;-39
2023/12/11 03:27:49;;;;;;;7.60;5.60;;;;;;;0.09;83.51;99340.91;106813;1261;59599;-39
2023/12/11 03:30:17;;;;;;;8.00;6.00;;;;;;;0.11;83.92;99337.73;106925;1263;60123;-39
2023/12/11 03:32:45;;;;;;;6.40;5.20;;;;;;;0.12;83.96;99336.05;106811;1263;73083;-39
2023/12/11 03:35:12;;;;;;;8.20;5.40;;;;;;;0.15;83.79;99341.02;106798;1267;66340;-39
2023/12/11 03:37:40;;;;;;;7.20;4.80;;;;;;;0.20;83.25;99344.83;106784;1264;72735;-39
2023/12/11 03:40:08;;;;;;;8.60;6.10;;;;;;;0.19;83.22;99344.05;106807;1264;59506;-39
2023/12/11 03:42:36;;;;;;;6.60;5.50;;;;;;;0.16;83.38;99340.99;107488;1253;60123;-39
2023/12/11 03:45:04;;;;;;;8.30;5.70;;;;;;;0.13;83.46;99336.27;107432;1253;73054;-39
2023/12/11 03:47:32;;;;;;;7.80;5.70;;;;;;;0.11;83.41;99335.17;107485;1253;66292;-39
2023/12/11 03:50:00;;;;;;;6.50;4.80;;;;;;;0.14;82.93;99330.11;107410;1253;72701;-39
2023/12/11 03:52:28;;;;;;;8.70;5.30;;;;;;;0.17;82.80;99329.69;107395;1254;59714;-39
2023/12/11 03:54:55;;;;;;;7.30;5.30;;;;;;;0.15;82.85;99323.91;106657;1254;1003110;-39
2023/12/11 03:57:24;;;;;;;8.20;5.60;;;;;;;0.11;82.81;99321.33;107374;1254;73019;-39
2023/12/11 03:59:51;;;;;;;6.70;4.50;;;;;;;0.05;82.68;99318.79;107390;1254;66451;-39
2023/12/11 04:02:19;;;;;;;7.00;4.60;;;;;;;0.01;82.75;99319.16;107349;1254;72706;-39
2023/12/11 04:04:47;;;;;;;5.70;4.00;;;;;;;0.07;82.15;99316.63;107399;1254;60930;-39
2023/12/11 04:07:14;;;;;;;4.70;3.90;;;;;;;0.09;81.88;99317.89;107400;1254;60067;-39
2023/12/11 04:09:42;;;;;;;5.50;4.00;;;;;;;0.06;81.78;99327.20;107423;1254;73045;-39
2023/12/11 04:12:10;;;;;;;5.50;4.00;;;;;;;-0.01;80.98;99326.08;107447;1253;67577;-39
2023/12/11 04:14:37;;;;;;;5.20;3.60;;;;;;;-0.08;80.60;99329.30;107375;1253;71409;-39
2023/12/11 04:17:05;;;;;;;5.10;3.50;;;;;;;-0.15;79.96;99329.84;107366;1253;60896;-39
2023/12/11 04:19:32;;;;;;;4.30;2.80;;;;;;;-0.17;79.46;99327.02;107439;1253;59770;-39
2023/12/11 04:22:00;;;;;;;4.30;3.40;;;;;;;-0.31;79.11;99319.77;107409;1253;73074;-39
2023/12/11 04:24:28;;;;;;;4.10;3.00;;;;;;;-0.32;79.08;99328.11;107385;1254;66786;-39
2023/12/11 04:26:55;;;;;;;4.10;2.90;;;;;;;-0.40;79.53;99327.73;107373;1254;72639;-39
2023/12/11 04:29:23;;;;;;;4.50;3.00;;;;;;;-0.45;79.64;99328.60;107357;1253;59834;-39
2023/12/11 04:31:50;;;;;;;4.30;3.00;;;;;;;-0.39;79.57;99330.87;107351;1254;60026;-39
2023/12/11 04:34:18;;;;;;;3.40;2.70;;;;;;;-0.41;79.45;99312.36;107411;1256;73030;-39
2023/12/11 04:36:46;;;;;;;3.50;2.80;;;;;;;-0.33;79.60;99325.23;107394;1258;67977;-39
2023/12/11 04:39:14;;;;;;;5.60;3.40;;;;;;;-0.34;79.72;99318.72;107389;1254;72730;-39
2023/12/11 04:41:41;;;;;;;4.30;3.10;;;;;;;-0.33;79.67;99316.55;107382;1254;59624;-39
2023/12/11 04:44:09;;;;;;;4.40;3.00;;;;;;;-0.32;79.75;99315.31;107398;1253;59794;-39
2023/12/11 04:46:36;;;;;;;4.90;2.60;;;;;;;-0.31;79.79;99309.38;107447;1253;71763;-39
2023/12/11 04:49:04;;;;;;;3.90;2.60;;;;;;;-0.21;79.64;99307.70;107391;1253;66860;-39
2023/12/11 04:51:32;;;;;;;2.90;2.60;;;;;;;-0.12;79.12;99302.17;107391;1254;72724;-39
2023/12/11 04:54:00;;;;;;;4.10;3.00;;;;;;;-0.10;79.30;99297.27;107378;1253;59673;-39
2023/12/11 04:56:27;;;;;;;4.10;3.40;;;;;;;-0.07;79.05;99287.91;107372;1253;60061;-39
2023/12/11 04:58:55;;;;;;;4.70;3.30;;;;;;;-0.03;79.23;99287.70;107436;1253;71882;-39
2023/12/11 05:01:25;;;;;;;4.50;3.10;;;;;;;0.00;79.19;99292.16;107437;1253;66402;-39
2023/12/11 05:03:54;;;;;;;5.00;3.50;;;;;;;0.02;78.90;99292.58;107384;1253;72763;-39
2023/12/11 05:06:21;;;;;;;5.40;3.70;;;;;;;0.05;78.71;99281.39;107394;1253;60898;-39
2023/12/11 05:08:49;;;;;;;4.70;3.70;;;;;;;0.15;78.36;99287.33;107361;1253;59497;-39
2023/12/11 05:11:16;;;;;;;4.40;3.60;;;;;;;0.27;78.16;99293.16;107422;1254;73079;-39
2023/12/11 05:13:44;;;;;;;4.90;3.60;;;;;;;0.32;78.35;99294.08;107427;1254;66807;-39
2023/12/11 05:16:12;;;;;;;5.70;4.20;;;;;;;0.38;78.34;99292.27;107422;1253;71375;-39
2023/12/11 05:18:39;;;;;;;7.50;4.30;;;;;;;0.40;78.09;99294.73;107419;1258;59605;-39
2023/12/11 05:21:09;;;;;;;6.40;4.60;;;;;;;0.42;78.00;99294.50;107420;1253;60030;-39
2023/12/11 05:23:36;;;;;;;6.50;4.20;;;;;;;0.42;77.96;99298.18;107470;1253;73076;-39
2023/12/11 05:26:04;;;;;;;6.70;4.60;;;;;;;0.41;77.93;99294.08;107451;1253;66214;-39
2023/12/11 05:28:32;;;;;;;6.10;4.10;;;;;;;0.40;77.97;99298.20;107400;1256;72721;-39
2023/12/11 05:30:59;;;;;;;5.40;3.90;;;;;;;0.45;77.50;99295.13;107419;1254;60882;-39
2023/12/11 05:33:27;;;;;;;6.80;3.30;;;;;;;0.50;77.31;99293.12;107408;1253;59724;-39
2023/12/11 05:35:55;;;;;;;5.50;3.70;;;;;;;0.50;77.65;99288.64;107415;1254;73159;-39
2023/12/11 05:38:22;;;;;;;7.40;3.40;;;;;;;0.48;77.36;99292.34;107429;1253;66454;-38
2023/12/11 05:40:50;;;;;;;6.10;3.20;;;;;;;0.39;77.35;99283.55;107407;1254;72674;-39
2023/12/11 05:43:17;;;;;;;3.80;3.00;;;;;;;0.31;77.59;99281.09;107390;1254;60363;-39
2023/12/11 05:45:45;;;;;;;5.00;3.60;;;;;;;0.28;77.87;99281.45;107423;1254;60316;-38
2023/12/11 05:48:14;;;;;;;5.10;3.20;;;;;;;0.25;77.93;99286.73;107374;1259;73812;-38
2023/12/11 05:50:42;;;;;;;5.70;3.20;;;;;;;0.28;77.83;99288.23;107418;1254;67593;-38
2023/12/11 05:53:09;;;;;;;7.00;3.70;;;;;;;0.31;77.79;99290.95;107393;1257;71453;-38
2023/12/11 05:55:37;;;;;;;5.20;3.60;;;;;;;0.27;77.98;99286.48;107387;1254;60379;-38
2023/12/11 05:58:04;;;;;;;5.20;3.60;;;;;;;0.23;78.35;99281.45;107377;1253;59595;-38
2023/12/11 06:00:32;;;;;;;7.00;4.00;;;;;;;0.22;78.40;99275.77;107371;1254;73838;-38
2023/12/11 06:03:00;;;;;;;6.60;4.00;;;;;;;0.21;78.49;99277.75;107400;1253;67552;-38
2023/12/11 06:05:28;;;;;;;5.30;3.70;;;;;;;0.19;78.75;99286.20;105893;1254;1003304;-37
2023/12/11 06:07:55;;;;;;;8.20;4.00;;;;;;;0.20;78.53;99285.80;107367;1256;60859;-38
2023/12/11 06:10:23;;;;;;;46.70;21.40;;;;;;;0.25;78.52;99289.20;107415;1254;60398;-38
2023/12/11 06:12:51;;;;;;;28.90;21.90;;;;;;;0.25;78.54;99286.90;107394;1254;73849;-38
2023/12/11 06:15:18;;;;;;;28.50;18.30;;;;;;;0.19;78.78;99284.55;107367;1256;67926;-38
2023/12/11 06:17:46;;;;;;;9.00;5.60;;;;;;;0.16;79.04;99279.37;107391;1257;72401;-38
2023/12/11 06:20:13;;;;;;;9.80;6.40;;;;;;;0.13;79.18;99272.73;107403;1254;60407;-38
2023/12/11 06:22:41;;;;;;;20.90;14.00;;;;;;;0.12;79.40;99275.65;107437;1253;60450;-38
2023/12/11 06:25:09;;;;;;;14.00;11.00;;;;;;;0.22;79.35;99286.58;107449;1254;73941;-38
2023/12/11 06:27:37;;;;;;;15.90;12.50;;;;;;;0.32;78.71;99295.31;107426;1253;67904;-38
2023/12/11 06:30:07;;;;;;;10.80;6.20;;;;;;;0.29;78.70;99295.08;107417;1256;72695;-38
2023/12/11 06:32:34;;;;;;;;;;;;;;;0.23;78.84;99296.32;107477;1254;60466;-38
2023/12/11 06:35:02;;;;;;;8.00;5.40;;;;;;;0.16;79.08;99301.18;107429;1253;60627;-38
2023/12/11 06:37:30;;;;;;;8.80;5.40;;;;;;;0.06;79.16;99304.70;107441;1253;74305;-38
2023/12/11 06:39:58;;;;;;;11.30;7.50;;;;;;;0.01;79.37;99306.66;107518;1253;67726;-38
2023/12/11 06:42:26;;;;;;;9.10;6.10;;;;;;;-0.00;79.28;99309.73;107419;1253;72642;-38
2023/12/11 06:44:54;;;;;;;6.80;4.60;;;;;;;-0.03;79.26;99307.19;107444;1254;59579;-38
2023/12/11 06:47:21;;;;;;;8.00;5.00;;;;;;;-0.09;79.65;99307.13;107422;1254;60057;-38
2023/12/11 06:49:49;;;;;;;7.80;5.20;;;;;;;-0.14;79.96;99307.85;107411;1258;73892;-38
2023/12/11 06:52:17;;;;;;;32.20;19.30;;;;;;;-0.17;80.23;99317.64;107402;1253;66642;-38
2023/12/11 06:54:44;;;;;;;34.70;18.90;;;;;;;-0.20;80.55;99309.48;107378;1253;71858;-38
2023/12/11 06:57:12;;;;;;;8.20;5.30;;;;;;;-0.15;80.49;99303.75;107375;1253;61187;-38
2023/12/11 06:59:40;;;;;;;45.90;25.60;;;;;;;-0.08;80.21;99305.20;107419;1253;60355;-37
2023/12/11 07:02:07;;;;;;;36.60;21.30;;;;;;;-0.09;80.29;99306.07;107402;1253;73845;-38
2023/12/11 07:04:35;;;;;;;64.40;31.60;;;;;;;-0.12;80.49;99307.61;107389;1253;67302;-38
2023/12/11 07:07:04;;;;;;;61.40;35.60;;;;;;;-0.17;80.52;99306.45;107380;1253;72686;-38
2023/12/11 07:09:32;;;;;;;29.80;16.50;;;;;;;-0.21;80.62;99303.80;107396;1253;60415;-39
2023/12/11 07:11:59;;;;;;;68.90;40.70;;;;;;;-0.19;80.61;99300.15;107396;1258;60307;-39
2023/12/11 07:14:27;;;;;;;21.70;12.40;;;;;;;-0.13;80.57;99299.09;107422;1253;72549;-39
2023/12/11 07:16:54;;;;;;;65.00;36.50;;;;;;;-0.13;80.51;99303.55;107389;1253;66496;-39
2023/12/11 07:19:22;;;;;;;47.60;26.90;;;;;;;-0.18;80.40;99301.63;107384;1253;71435;-39
2023/12/11 07:21:50;;;;;;;46.30;26.70;;;;;;;-0.21;80.74;99299.86;107518;1253;60408;-39
2023/12/11 07:24:18;;;;;;;22.60;14.70;;;;;;;-0.22;80.63;99296.20;107417;1253;60129;-39
2023/12/11 07:26:45;;;;;;;99.40;42.30;;;;;;;-0.17;80.67;99293.47;107394;1253;73871;-39
2023/12/11 07:29:13;;;;;;;24.10;11.60;;;;;;;-0.08;80.60;99287.27;107453;1253;66477;-39
2023/12/11 07:31:41;;;;;;;60.20;32.90;;;;;;;0.01;80.69;99287.09;107389;1253;72677;-39
2023/12/11 07:34:09;;;;;;;29.30;18.40;;;;;;;0.04;80.54;99283.70;107370;1253;60404;-39
2023/12/11 07:36:36;;;;;;;12.20;9.20;;;;;;;0.05;80.42;99287.02;107422;1253;60315;-39
2023/12/11 07:39:05;;;;;;;9.80;7.30;;;;;;;0.06;80.56;99286.15;107438;1253;73844;-39
2023/12/11 07:41:33;;;;;;;6.20;4.80;;;;;;;0.08;80.49;99289.02;107429;1253;66594;-39
2023/12/11 07:44:01;;;;;;;8.80;6.80;;;;;;;0.18;80.02;99280.30;107400;1254;71480;-39
2023/12/11 07:46:30;;;;;;;7.00;5.30;;;;;;;0.24;79.51;99273.30;107374;1256;60483;-39
2023/12/11 07:48:57;;;;;;;5.00;3.00;;;;;;;0.23;79.19;99274.46;107379;1254;60515;-39
2023/12/11 07:51:25;;;;;;;6.00;4.50;;;;;;;0.21;79.09;99279.98;107324;1254;73881;-39
2023/12/11 07:53:55;;;;;;;5.30;4.20;;;;;;;0.19;79.18;99280.02;107439;1254;67768;-39
2023/12/11 07:56:23;;;;;;;;;;;;;;;0.19;79.03;99280.33;107382;1254;72788;-39
2023/12/11 07:58:51;;;;;;;;;;;;;;;0.22;78.50;99280.71;107406;1253;60876;-39
2023/12/11 08:01:18;;;;;;;;;;;;;;;0.27;78.50;99283.38;107369;1254;60383;-39
2023/12/11 08:03:46;;;;;;;;;;;;;;;0.30;78.73;99282.10;107398;1254;74364;-39
2023/12/11 08:06:14;;;;;;;;;;;;;;;0.31;78.76;99283.00;107384;1254;66434;-39
2023/12/11 08:08:44;;;;;;;;;;;;;;;0.29;78.91;99274.67;107407;1254;71480;-39
2023/12/11 08:11:19;;;;;;;;;;;;;;;0.35;78.59;99278.50;107400;1258;60467;-39
2023/12/11 08:13:47;;;;;;;;;;;;;;;0.32;78.64;99281.45;107479;1258;60342;-37
2023/12/11 08:16:14;;;;;;;;;;;;;;;0.31;78.54;99280.82;107381;1254;74122;-37
2023/12/11 08:18:43;;;;;;;;;;;;;;;0.37;78.38;99282.20;107381;1254;67778;-37
2023/12/11 08:21:11;;;;;;;;;;;;;;;0.40;77.67;99282.90;107361;1258;72076;-37
2023/12/11 08:23:39;;;;;;;;;;;;;;;0.37;77.89;99282.33;107391;1254;60531;-38
2023/12/11 08:26:07;;;;;;;;;;;;;;;0.34;77.93;99278.36;107375;1254;60448;-38
2023/12/11 08:28:34;;;;;;;;;;;;;;;0.31;77.78;99275.06;107445;1254;73239;-38
2023/12/11 08:31:03;;;;;;;;;;;;;;;0.24;77.79;99277.95;107362;1254;67824;-38
2023/12/11 08:33:30;;;;;;;;;;;;;;;0.16;77.88;99275.90;107399;1254;72676;-38
2023/12/11 08:35:58;;;;;;;;;;;;;;;0.17;78.03;99271.52;107355;1254;59991;-38
2023/12/11 08:38:26;;;;;;;;;;;;;;;0.21;77.77;99266.23;107371;1254;59831;-38
2023/12/11 08:40:53;;;;;;;;;;;;;;;0.17;77.80;99268.70;107354;1254;74262;-38
2023/12/11 08:43:21;;;;;;;;;;;;;;;0.12;78.17;99271.45;107300;1254;66293;-38
2023/12/11 08:45:48;;;;;;;;;;;;;;;0.05;77.62;99264.91;107406;1254;72479;-37
2023/12/11 08:48:16;;;;;;;;;;;;;;;-0.05;77.80;99254.15;107387;1259;59645;-38
2023/12/11 08:50:43;;;;;;;;;;;;;;;-0.11;78.02;99254.10;107392;1254;60458;-38
2023/12/11 08:53:11;;;;;;;;;;;;;;;-0.10;78.00;99251.51;107359;1254;74178;-38
2023/12/11 08:55:39;;;;;;;;;;;;;;;-0.15;78.19;99250.38;107419;1254;66609;-38
2023/12/11 08:58:06;;;;;;;;;;;;;;;-0.23;78.57;99254.66;107404;1254;74878;-38
2023/12/11 09:00:34;;;;;;;;;;;;;;;-0.32;78.97;99253.91;107380;1256;59680;-38
2023/12/11 09:03:01;;;;;;;;;;;;;;;-0.39;79.44;99252.45;107427;1254;60432;-38
2023/12/11 09:05:29;;;;;;;;;;;;;;;-0.36;79.54;99247.89;107334;1254;72649;-38
2023/12/11 09:07:56;;;;;;;;;;;;;;;-0.31;79.54;99243.92;107420;1254;67924;-38
2023/12/11 09:10:24;;;;;;;;;;;;;;;-0.32;79.62;99248.67;107383;1256;71897;-38
2023/12/11 09:12:53;;;;;;;;;;;;;;;-0.34;79.62;99254.35;107346;1254;60356;-38
2023/12/11 09:15:20;;;;;;;;;;;;;;;-0.39;79.54;99256.84;107427;1254;60365;-38
2023/12/11 09:17:48;;;;;;;;;;;;;;;-0.45;78.74;99259.36;107387;1254;72910;-38
2023/12/11 09:20:16;;;;;;;;;;;;;;;-0.45;78.29;99254.45;107361;1254;67878;-38
2023/12/11 09:22:43;;;;;;;;;;;;;;;-0.42;77.96;99255.68;107427;1254;72681;-38
2023/12/11 09:25:11;;;;;;;;;;;;;;;-0.47;78.03;99250.11;107405;1254;60323;-38
2023/12/11 09:27:39;;;;;;;;;;;;;;;-0.54;78.23;99244.00;107381;1258;59830;-38
2023/12/11 09:30:09;;;;;;;;;;;;;;;-0.61;78.31;99241.81;107413;1254;73851;-38
2023/12/11 09:32:37;;;;;;;;;;;;;;;-0.66;78.64;99235.48;107325;1254;66842;-38
2023/12/11 09:35:05;;;;;;;;;;;;;;;-0.62;78.82;99232.14;107304;1256;74836;-38
2023/12/11 09:37:33;;;;;;;;;;;;;;;-0.57;78.57;99235.84;107389;1258;60468;-38
2023/12/11 09:40:00;;;;;;;;;;;;;;;-0.58;78.73;99230.41;107364;1254;60555;-38
2023/12/11 09:42:28;;;;;;;;;;;;;;;-0.60;79.12;99232.21;107394;1254;72646;-38
2023/12/11 09:44:55;;;;;;;;;;;;;;;-0.63;79.55;99233.73;107343;1260;67625;-38
2023/12/11 09:47:27;;;;;;;;;;;;;;;-0.65;79.92;99226.86;107346;1256;72021;-39
2023/12/11 09:49:55;;;;;;;;;;;;;;;-0.63;79.60;99231.36;107342;1256;60959;-38
2023/12/11 09:52:22;;;;;;;;;;;;;;;-0.61;79.71;99220.88;107361;1255;60456;-38
2023/12/11 09:54:50;;;;;;;;;;;;;;;-0.64;79.91;99218.33;107395;1259;72720;-38
2023/12/11 09:57:17;;;;;;;;;;;;;;;-0.71;79.85;99214.77;107366;1254;70239;-38
2023/12/11 09:59:45;;;;;;;;;;;;;;;-0.80;79.79;99214.61;107302;1256;72694;-39
2023/12/11 10:02:14;;;;;;;;;;;;;;;-0.84;80.09;99211.33;107280;1254;60206;-38
2023/12/11 10:05:00;;;;;;;;;;;;;;;-0.81;80.12;99209.99;107322;1255;62006;-38
2023/12/11 10:07:28;;;;;;;;;;;;;;;-0.75;80.02;99209.06;107378;1254;73670;-39
2023/12/11 10:09:56;;;;;;;;;;;;;;;-0.74;79.95;99205.64;107387;1255;67910;-39
2023/12/11 10:12:24;;;;;;;;;;;;;;;-0.77;79.57;99206.80;107385;1254;72651;-38
2023/12/11 10:15:01;;;;;;;;;;;;;;;-0.81;79.39;99206.33;107431;1254;60370;-39
2023/12/11 10:17:29;;;;;;;;;;;;;;;-0.85;79.08;99205.27;107417;1254;60557;-39
2023/12/11 10:19:57;;;;;;;;;;;;;;;-0.83;78.60;99200.51;107373;1254;73887;-39
2023/12/11 10:22:29;;;;;;;;;;;;;;;-0.83;78.18;99197.02;107420;1254;67659;-39
2023/12/11 10:24:58;;;;;;;;;;;;;;;-0.86;78.35;99192.62;107501;1258;71497;-39
2023/12/11 10:27:26;;;;;;;;;;;;;;;-0.91;78.35;99191.08;107552;1256;60502;-39
2023/12/11 10:30:05;;;;;;;;;;;;;;;-0.94;78.41;99183.42;107424;1254;60582;-39
2023/12/11 10:32:33;;;;;;;;;;;;;;;-0.91;78.62;99173.36;107349;1254;72623;-39
2023/12/11 10:35:00;;;;;;;;;;;;;;;-0.81;78.24;99167.10;107374;1254;66882;-39
2023/12/11 10:37:31;;;;;;;;;;;;;;;-0.79;77.95;99167.93;107442;1254;71748;-39
2023/12/11 10:39:59;;;;;;;;;;;;;;;-0.82;77.72;99172.66;107432;1254;60451;-39
2023/12/11 10:42:27;;;;;;;;;;;;;;;-0.86;77.70;99171.80;107409;1254;60435;-39
2023/12/11 10:44:58;;;;;;;;;;;;;;;-0.91;77.89;99163.90;107408;1258;73905;-39
2023/12/11 10:47:25;;;;;;;;;;;;;;;-0.93;77.55;99170.65;107399;1254;68356;-39
2023/12/11 10:49:53;;;;;;;;;;;;;;;-0.92;77.33;99166.45;107432;1257;74879;-37
2023/12/11 10:52:21;;;;;;;;;;;;;;;-0.96;77.67;99163.23;107317;1254;60424;-38
2023/12/11 10:54:48;;;;;;;;;;;;;;;-1.01;77.89;99162.08;107430;1254;60290;-38
2023/12/11 10:57:16;;;;;;;;;;;;;;;-1.05;78.20;99158.41;107423;1254;73835;-38
2023/12/11 10:59:45;;;;;;;;;;;;;;;-1.07;78.25;99156.85;107345;1254;69856;-38
2023/12/11 11:02:13;;;;;;;;;;;;;;;-1.09;78.13;99156.23;107337;1254;74871;-38
2023/12/11 11:04:42;;;;;;;;;;;;;;;-1.01;78.00;99152.28;107344;1256;61259;-38
2023/12/11 11:07:12;;;;;;;;;;;;;;;-1.04;77.88;99141.46;107382;1255;60381;-38
2023/12/11 11:09:50;;;;;;;;;;;;;;;-1.04;78.02;99152.06;107296;1253;74703;-38
2023/12/11 11:12:27;;;;;;;;;;;;;;;-1.08;78.02;99154.73;107438;1254;67181;-38
2023/12/11 11:14:54;;;;;;;;;;;;;;;-1.10;78.26;99150.97;107339;1254;71464;-38
2023/12/11 11:17:22;;;;;;;;;;;;;;;-1.08;78.31;99143.19;107184;1256;60999;-38
2023/12/11 11:20:10;;;;;;;;;;;;;;;-0.99;78.07;99136.45;107330;1254;60426;-38
2023/12/11 11:22:38;;;;;;;;;;;;;;;-0.88;78.28;99134.67;107363;1254;74172;-38
2023/12/11 11:25:26;;;;;;;;;;;;;;;-0.83;77.92;99139.20;107425;1254;67570;-38
2023/12/11 11:27:53;;;;;;;;;;;;;;;-0.83;78.10;99144.68;107338;1258;71848;-38
2023/12/11 11:30:40;;;;;;;;;;;;;;;-0.86;77.94;99142.90;107580;1254;60484;-38
2023/12/11 11:33:08;;;;;;;;;;;;;;;-0.91;78.08;99142.49;107346;1254;61088;-38
2023/12/11 11:35:45;;;;;;;;;;;;;;;-0.92;78.22;99145.08;107413;1254;73814;-38
2023/12/11 11:38:13;;;;;;;;;;;;;;;-0.85;78.08;99137.09;107309;1254;67631;-38
2023/12/11 11:40:43;;;;;;;;;;;;;;;-0.81;77.95;99128.19;107339;1256;72660;-38
2023/12/11 11:43:12;;;;;;;;;;;;;;;-0.85;78.08;99126.34;107323;1254;61463;-38
2023/12/11 11:45:39;;;;;;;;;;;;;;;-0.88;78.24;99122.35;107395;1254;60363;-38
2023/12/11 11:48:07;;;;;;;;;;;;;;;-0.89;78.34;99123.64;107429;1256;73864;-38
2023/12/11 11:50:35;;;;;;;;;;;;;;;-0.92;78.35;99126.40;107391;1253;68990;-38
2023/12/11 11:53:09;;;;;;;;;;;;;;;-0.90;78.14;99124.13;107259;1255;70528;-38
2023/12/11 11:55:37;;;;;;;;;;;;;;;-0.81;77.69;99128.09;107278;1255;61002;-38